»·PEaware :: N774DK KWHP-KSBP

N774DK :: KWHP-KSBP

FLIGHT INFORMATION

Flight Status: Arrived
Operator: Privately registered:
United States
More flights under this callsign
Pilot: Eugenio Joel D. (45026)
Aircraft: CESSNA 172 SKYHAWK
(C172)
More flights by this aircraft type
Origin: KWHP Whiteman
United States
Destination: KSBP San Luis Co Regl
United States
More flights between these airports :: More routes between these airports
Route: FLW
File this flight plan on PilotEdge
Remarks:
Altitude:
(Current/Filed)
8,500ft
Speed:
(Current/Filed)
110kts
Departed: 29-Aug-23 02:15 PM
Arrived: 29-Aug-23 03:23 PM
Distance/Time
Traveled:
125nm/1:08
Distance/Time
To Go:
Arrived

Flight Plot

Page will automatically refresh every two minutes.

Flight plan parsing failed; only flown route is shown


Map Options




Map Legend


Flown Route
Filed Route
Departure Airport
Arrival Airport
Navaid (VOR, NDB)
Fix

Horizontal Profiles

Position Reports

Time Latitude Longitude Heading Altitude Ground
Speed
29-Aug-23 14:13 34.255748 -118.409046 144 997ft 6kts
29-Aug-23 14:14 34.256349 -118.410327 319 999ft 45kts
29-Aug-23 14:15 34.271682 -118.424977 312 1674ft 69kts
29-Aug-23 14:16 34.287007 -118.443844 316 2419ft 80kts
29-Aug-23 14:17 34.303441 -118.462068 317 3187ft 80kts
29-Aug-23 14:18 34.320131 -118.480601 316 3900ft 81kts
29-Aug-23 14:19 34.332870 -118.503526 303 4647ft 82kts
29-Aug-23 14:21 34.345926 -118.526626 304 5525ft 84kts
29-Aug-23 14:22 34.359220 -118.550003 304 6314ft 85kts
29-Aug-23 14:23 34.372690 -118.573726 304 6946ft 85kts
29-Aug-23 14:24 34.386234 -118.597571 304 7509ft 86kts
29-Aug-23 14:25 34.399939 -118.621731 304 8083ft 88kts
29-Aug-23 14:26 34.415149 -118.648493 304 8525ft 99kts
29-Aug-23 14:27 34.433341 -118.680469 304 8538ft 123kts
29-Aug-23 14:28 34.452985 -118.715149 304 8536ft 126kts
29-Aug-23 14:29 34.472781 -118.750174 304 8534ft 125kts
29-Aug-23 14:30 34.492506 -118.785106 304 8536ft 126kts
29-Aug-23 14:31 34.512106 -118.819865 304 8531ft 125kts
29-Aug-23 14:32 34.531873 -118.854931 304 8533ft 125kts
29-Aug-23 14:33 34.551587 -118.889944 304 8534ft 126kts
29-Aug-23 14:34 34.571454 -118.925273 304 8537ft 127kts
29-Aug-23 14:35 34.591257 -118.960522 304 8533ft 125kts
29-Aug-23 14:36 34.611001 -118.995703 304 8533ft 126kts
29-Aug-23 14:37 34.630756 -119.030915 304 8538ft 127kts
29-Aug-23 14:38 34.650486 -119.066131 304 8531ft 125kts
29-Aug-23 14:39 34.669973 -119.100959 304 8526ft 123kts
29-Aug-23 14:40 34.689014 -119.135040 304 8521ft 120kts
29-Aug-23 14:41 34.707813 -119.168697 304 8525ft 121kts
29-Aug-23 14:42 34.726883 -119.202857 304 8531ft 122kts
29-Aug-23 14:43 34.743614 -119.238602 265 8519ft 124kts
29-Aug-23 14:44 34.741077 -119.279897 268 8527ft 122kts
29-Aug-23 14:45 34.748451 -119.317631 312 8535ft 123kts
29-Aug-23 14:45 34.766960 -119.344268 308 8539ft 123kts
29-Aug-23 14:47 34.791456 -119.383020 307 8534ft 123kts
29-Aug-23 14:48 34.812341 -119.416222 307 8535ft 124kts
29-Aug-23 14:49 34.833303 -119.449585 307 8533ft 123kts
29-Aug-23 14:50 34.853997 -119.482541 307 8533ft 122kts
29-Aug-23 14:50 34.871212 -119.509987 307 8531ft 122kts
29-Aug-23 14:51 34.891820 -119.542862 307 8529ft 121kts
29-Aug-23 14:52 34.912355 -119.575655 307 8527ft 121kts
29-Aug-23 14:54 34.925324 -119.596381 307 8527ft 121kts
29-Aug-23 14:55 34.942306 -119.623553 307 8524ft 119kts
29-Aug-23 14:55 34.959257 -119.650667 307 8535ft 121kts
29-Aug-23 14:56 34.979885 -119.683693 307 8535ft 121kts
29-Aug-23 14:57 35.000407 -119.716603 307 8537ft 122kts
29-Aug-23 14:59 35.024417 -119.755140 307 8532ft 121kts
29-Aug-23 14:59 35.041341 -119.782336 307 8532ft 120kts
29-Aug-23 15:00 35.061790 -119.815210 307 8533ft 121kts
29-Aug-23 15:01 35.082221 -119.848085 307 8534ft 121kts
29-Aug-23 15:02 35.096594 -119.884234 283 8526ft 121kts
29-Aug-23 15:03 35.104183 -119.924398 283 8527ft 121kts
29-Aug-23 15:04 35.111750 -119.964538 283 8530ft 121kts
29-Aug-23 15:05 35.119330 -120.004875 283 8528ft 121kts
29-Aug-23 15:06 35.126860 -120.044999 283 8530ft 121kts
29-Aug-23 15:07 35.134400 -120.085264 283 8538ft 120kts
29-Aug-23 15:08 35.142445 -120.127943 283 8125ft 131kts
29-Aug-23 15:09 35.150536 -120.171241 283 7625ft 130kts
29-Aug-23 15:10 35.156801 -120.214725 272 7122ft 130kts
29-Aug-23 15:11 35.157965 -120.260127 272 6633ft 135kts
29-Aug-23 15:12 35.162460 -120.305290 277 6136ft 134kts
29-Aug-23 15:13 35.166892 -120.350990 277 5640ft 135kts
29-Aug-23 15:14 35.171266 -120.396643 277 5143ft 136kts
29-Aug-23 15:15 35.175577 -120.441763 277 4634ft 131kts
29-Aug-23 15:16 35.179680 -120.484570 277 3964ft 121kts
29-Aug-23 15:17 35.183320 -120.522537 277 3220ft 99kts
29-Aug-23 15:18 35.187397 -120.553528 305 2462ft 95kts
29-Aug-23 15:19 35.203555 -120.581451 305 1609ft 103kts
29-Aug-23 15:20 35.219013 -120.608754 304 839ft 87kts
29-Aug-23 15:21 35.231033 -120.629968 305 319ft 67kts
29-Aug-23 15:22 35.237479 -120.641313 306 192ft 22kts
29-Aug-23 15:23 35.239913 -120.643953 53 181ft 0kts
29-Aug-23 15:24 35.238708 -120.640973 237 191ft 0kts
29-Aug-23 15:25 35.238708 -120.640973 237 191ft 0kts
29-Aug-23 15:26 35.238708 -120.640973 237 191ft 0kts
29-Aug-23 15:27 35.238708 -120.640973 237 191ft 0kts
29-Aug-23 15:28 35.238708 -120.640973 237 191ft 0kts
29-Aug-23 15:29 35.238708 -120.640973 237 191ft 0kts
29-Aug-23 15:30 35.238708 -120.640973 237 191ft 0kts

Navigation Log

Ident Type
Flight plan parsing failed, navigation log unavailable